sensor_id;sensor_type;location;lat;lon;timestamp;pressure;altitude;pressure_sealevel;temperature;humidity
62072;BME280;48031;48.542;13.232;2023-04-22T00:01:37;96821.69;;;17.53;39.05
62072;BME280;48031;48.542;13.232;2023-04-22T00:05:40;96813.63;;;16.85;40.07
62072;BME280;48031;48.542;13.232;2023-04-22T00:09:42;96818.44;;;17.15;39.23
62072;BME280;48031;48.542;13.232;2023-04-22T00:13:44;96816.16;;;17.31;39.71
62072;BME280;48031;48.542;13.232;2023-04-22T00:17:47;96823.69;;;17.61;38.90
62072;BME280;48031;48.542;13.232;2023-04-22T00:21:49;96810.56;;;17.58;38.59
62072;BME280;48031;48.542;13.232;2023-04-22T00:25:51;96821.53;;;17.94;38.38
62072;BME280;48031;48.542;13.232;2023-04-22T00:29:53;96820.84;;;16.81;39.64
62072;BME280;48031;48.542;13.232;2023-04-22T00:33:54;96819.38;;;16.56;40.41
62072;BME280;48031;48.542;13.232;2023-04-22T00:37:57;96825.19;;;16.68;40.72
62072;BME280;48031;48.542;13.232;2023-04-22T00:41:59;96819.28;;;17.02;39.30
62072;BME280;48031;48.542;13.232;2023-04-22T00:46:01;96815.03;;;16.96;39.79
62072;BME280;48031;48.542;13.232;2023-04-22T00:50:03;96813.28;;;16.45;40.41
62072;BME280;48031;48.542;13.232;2023-04-22T00:54:05;96803.34;;;16.36;41.29
62072;BME280;48031;48.542;13.232;2023-04-22T00:58:07;96801.94;;;16.38;41.17
62072;BME280;48031;48.542;13.232;2023-04-22T01:02:11;96801.66;;;16.81;40.26
62072;BME280;48031;48.542;13.232;2023-04-22T01:06:13;96816.56;;;16.61;40.84
62072;BME280;48031;48.542;13.232;2023-04-22T01:10:17;96810.34;;;16.96;40.71
62072;BME280;48031;48.542;13.232;2023-04-22T01:14:44;96812.38;;;17.40;39.50
62072;BME280;48031;48.542;13.232;2023-04-22T01:18:46;96813.72;;;16.93;39.57
62072;BME280;48031;48.542;13.232;2023-04-22T01:22:49;96818.34;;;17.07;39.67
62072;BME280;48031;48.542;13.232;2023-04-22T01:31:00;96823.34;;;16.91;39.68
62072;BME280;48031;48.542;13.232;2023-04-22T01:35:03;96830.25;;;17.02;39.31
62072;BME280;48031;48.542;13.232;2023-04-22T01:39:05;96832.81;;;16.98;39.93
62072;BME280;48031;48.542;13.232;2023-04-22T01:43:08;96840.94;;;16.62;41.28
62072;BME280;48031;48.542;13.232;2023-04-22T01:47:09;96838.09;;;16.68;40.10
62072;BME280;48031;48.542;13.232;2023-04-22T01:51:11;96831.56;;;16.36;40.67
62072;BME280;48031;48.542;13.232;2023-04-22T01:55:14;96829.53;;;16.42;40.55
62072;BME280;48031;48.542;13.232;2023-04-22T01:59:18;96829.56;;;16.83;39.85
62072;BME280;48031;48.542;13.232;2023-04-22T02:03:20;96828.56;;;17.28;39.09
62072;BME280;48031;48.542;13.232;2023-04-22T02:07:22;96829.34;;;16.52;40.51
62072;BME280;48031;48.542;13.232;2023-04-22T02:11:24;96827.56;;;16.15;40.84
62072;BME280;48031;48.542;13.232;2023-04-22T02:15:26;96818.09;;;15.94;41.77
62072;BME280;48031;48.542;13.232;2023-04-22T02:19:28;96809.38;;;15.22;43.74
62072;BME280;48031;48.542;13.232;2023-04-22T02:23:29;96792.31;;;15.30;43.63
62072;BME280;48031;48.542;13.232;2023-04-22T02:27:31;96806.06;;;16.22;41.45
62072;BME280;48031;48.542;13.232;2023-04-22T02:31:33;96811.16;;;16.15;41.63
62072;BME280;48031;48.542;13.232;2023-04-22T02:35:35;96818.97;;;15.75;43.17
62072;BME280;48031;48.542;13.232;2023-04-22T02:39:37;96833.81;;;16.02;42.12
62072;BME280;48031;48.542;13.232;2023-04-22T02:43:40;96825.28;;;15.90;42.13
62072;BME280;48031;48.542;13.232;2023-04-22T02:47:47;96836.03;;;16.00;42.50
62072;BME280;48031;48.542;13.232;2023-04-22T02:51:48;96839.13;;;16.12;41.39
62072;BME280;48031;48.542;13.232;2023-04-22T02:55:51;96843.78;;;16.11;41.67
62072;BME280;48031;48.542;13.232;2023-04-22T02:59:53;96849.31;;;15.93;42.42
62072;BME280;48031;48.542;13.232;2023-04-22T03:03:57;96850.28;;;15.83;42.70
62072;BME280;48031;48.542;13.232;2023-04-22T03:07:59;96839.34;;;16.15;42.11
62072;BME280;48031;48.542;13.232;2023-04-22T03:12:03;96857.19;;;15.80;42.79
62072;BME280;48031;48.542;13.232;2023-04-22T03:16:05;96853.50;;;15.71;42.67
62072;BME280;48031;48.542;13.232;2023-04-22T03:20:09;96850.44;;;15.92;42.38
62072;BME280;48031;48.542;13.232;2023-04-22T03:24:11;96849.00;;;15.43;43.27
62072;BME280;48031;48.542;13.232;2023-04-22T03:28:18;96853.97;;;15.60;43.28
62072;BME280;48031;48.542;13.232;2023-04-22T03:32:20;96850.22;;;15.88;42.32
62072;BME280;48031;48.542;13.232;2023-04-22T03:36:31;96851.56;;;15.16;44.10
62072;BME280;48031;48.542;13.232;2023-04-22T03:40:33;96845.34;;;14.91;44.88
62072;BME280;48031;48.542;13.232;2023-04-22T03:44:40;96846.25;;;15.62;43.15
62072;BME280;48031;48.542;13.232;2023-04-22T03:48:43;96839.25;;;16.20;41.61
62072;BME280;48031;48.542;13.232;2023-04-22T03:52:54;96840.88;;;15.89;42.59
62072;BME280;48031;48.542;13.232;2023-04-22T03:56:57;96843.06;;;15.73;42.68
62072;BME280;48031;48.542;13.232;2023-04-22T04:01:00;96844.00;;;16.15;42.23
62072;BME280;48031;48.542;13.232;2023-04-22T04:05:02;96846.59;;;15.93;42.26
62072;BME280;48031;48.542;13.232;2023-04-22T04:09:05;96858.50;;;14.66;45.37
62072;BME280;48031;48.542;13.232;2023-04-22T04:13:08;96847.34;;;14.38;46.53
62072;BME280;48031;48.542;13.232;2023-04-22T04:17:20;96851.31;;;14.93;44.79
62072;BME280;48031;48.542;13.232;2023-04-22T04:21:28;96851.31;;;14.93;44.73
62072;BME280;48031;48.542;13.232;2023-04-22T04:25:30;96854.25;;;15.21;44.28
62072;BME280;48031;48.542;13.232;2023-04-22T04:29:41;96844.22;;;15.54;43.30
62072;BME280;48031;48.542;13.232;2023-04-22T04:33:49;96834.09;;;15.49;43.74
62072;BME280;48031;48.542;13.232;2023-04-22T04:37:51;96848.28;;;14.95;44.74
62072;BME280;48031;48.542;13.232;2023-04-22T04:41:55;96840.19;;;15.46;43.73
62072;BME280;48031;48.542;13.232;2023-04-22T04:46:01;96841.03;;;15.98;42.46
62072;BME280;48031;48.542;13.232;2023-04-22T04:50:10;96841.00;;;16.57;41.50
62072;BME280;48031;48.542;13.232;2023-04-22T04:54:13;96838.75;;;16.32;42.10
62072;BME280;48031;48.542;13.232;2023-04-22T04:58:15;96841.84;;;15.98;42.98
62072;BME280;48031;48.542;13.232;2023-04-22T05:02:19;96840.03;;;16.07;42.56
62072;BME280;48031;48.542;13.232;2023-04-22T05:06:21;96847.72;;;16.05;42.65
62072;BME280;48031;48.542;13.232;2023-04-22T05:10:29;96857.72;;;16.56;42.68
62072;BME280;48031;48.542;13.232;2023-04-22T05:14:31;96846.97;;;16.32;42.55
62072;BME280;48031;48.542;13.232;2023-04-22T05:18:33;96855.34;;;16.22;42.46
62072;BME280;48031;48.542;13.232;2023-04-22T05:22:39;96849.03;;;16.68;42.33
62072;BME280;48031;48.542;13.232;2023-04-22T05:26:47;96850.44;;;16.51;42.30
62072;BME280;48031;48.542;13.232;2023-04-22T05:30:52;96846.38;;;16.49;42.15
62072;BME280;48031;48.542;13.232;2023-04-22T05:34:54;96854.28;;;16.50;42.84
62072;BME280;48031;48.542;13.232;2023-04-22T05:38:56;96856.06;;;16.14;43.36
62072;BME280;48031;48.542;13.232;2023-04-22T05:42:58;96855.50;;;16.44;42.82
62072;BME280;48031;48.542;13.232;2023-04-22T05:47:00;96859.00;;;16.63;42.62
62072;BME280;48031;48.542;13.232;2023-04-22T05:51:02;96867.75;;;16.33;43.55
62072;BME280;48031;48.542;13.232;2023-04-22T05:55:07;96863.22;;;16.42;43.87
62072;BME280;48031;48.542;13.232;2023-04-22T05:59:09;96863.03;;;15.74;45.43
62072;BME280;48031;48.542;13.232;2023-04-22T06:03:11;96867.25;;;16.31;44.72
62072;BME280;48031;48.542;13.232;2023-04-22T06:07:14;96870.00;;;16.45;44.58
62072;BME280;48031;48.542;13.232;2023-04-22T06:11:16;96870.34;;;16.11;45.61
62072;BME280;48031;48.542;13.232;2023-04-22T06:15:17;96866.09;;;16.05;46.00
62072;BME280;48031;48.542;13.232;2023-04-22T06:19:20;96867.59;;;15.97;46.09
62072;BME280;48031;48.542;13.232;2023-04-22T06:23:22;96874.88;;;16.34;45.58
62072;BME280;48031;48.542;13.232;2023-04-22T06:27:24;96856.97;;;16.09;46.48
62072;BME280;48031;48.542;13.232;2023-04-22T06:31:26;96871.59;;;16.18;46.28
62072;BME280;48031;48.542;13.232;2023-04-22T06:35:27;96875.25;;;16.28;46.22
62072;BME280;48031;48.542;13.232;2023-04-22T06:39:29;96873.50;;;16.18;46.36
62072;BME280;48031;48.542;13.232;2023-04-22T06:43:56;96878.09;;;16.69;44.99
62072;BME280;48031;48.542;13.232;2023-04-22T06:48:22;96889.38;;;16.35;45.73
62072;BME280;48031;48.542;13.232;2023-04-22T06:52:47;96892.25;;;16.57;45.72
62072;BME280;48031;48.542;13.232;2023-04-22T06:56:49;96890.47;;;16.80;44.97
62072;BME280;48031;48.542;13.232;2023-04-22T07:00:51;96896.19;;;16.51;45.66
62072;BME280;48031;48.542;13.232;2023-04-22T07:04:53;96892.06;;;16.53;45.87
62072;BME280;48031;48.542;13.232;2023-04-22T07:08:55;96894.63;;;16.63;45.35
62072;BME280;48031;48.542;13.232;2023-04-22T07:12:57;96895.56;;;16.40;45.80
62072;BME280;48031;48.542;13.232;2023-04-22T07:16:59;96894.63;;;16.91;44.89
62072;BME280;48031;48.542;13.232;2023-04-22T07:21:01;96894.09;;;16.61;45.14
62072;BME280;48031;48.542;13.232;2023-04-22T07:25:03;96895.63;;;16.95;44.86
62072;BME280;48031;48.542;13.232;2023-04-22T07:29:05;96887.63;;;16.98;44.92
62072;BME280;48031;48.542;13.232;2023-04-22T07:33:07;96893.69;;;17.23;44.26
62072;BME280;48031;48.542;13.232;2023-04-22T07:37:09;96884.81;;;17.39;44.36
62072;BME280;48031;48.542;13.232;2023-04-22T07:41:11;96884.28;;;17.65;44.00
62072;BME280;48031;48.542;13.232;2023-04-22T07:45:13;96882.88;;;17.54;44.63
62072;BME280;48031;48.542;13.232;2023-04-22T07:49:14;96884.50;;;17.55;45.01
62072;BME280;48031;48.542;13.232;2023-04-22T07:53:17;96883.69;;;17.54;45.25
62072;BME280;48031;48.542;13.232;2023-04-22T07:57:19;96880.94;;;17.54;44.68
62072;BME280;48031;48.542;13.232;2023-04-22T08:01:23;96880.56;;;17.83;44.67
62072;BME280;48031;48.542;13.232;2023-04-22T08:05:25;96887.88;;;17.38;45.23
62072;BME280;48031;48.542;13.232;2023-04-22T08:09:26;96889.34;;;17.71;44.51
62072;BME280;48031;48.542;13.232;2023-04-22T08:13:28;96888.78;;;17.61;45.20
62072;BME280;48031;48.542;13.232;2023-04-22T08:17:30;96879.88;;;18.53;43.50
62072;BME280;48031;48.542;13.232;2023-04-22T08:21:32;96881.19;;;18.95;42.15
62072;BME280;48031;48.542;13.232;2023-04-22T08:25:34;96888.19;;;19.01;43.22
62072;BME280;48031;48.542;13.232;2023-04-22T08:29:35;96884.22;;;19.24;42.36
62072;BME280;48031;48.542;13.232;2023-04-22T08:33:39;96879.44;;;19.64;41.53
62072;BME280;48031;48.542;13.232;2023-04-22T08:37:41;96888.56;;;18.46;44.31
62072;BME280;48031;48.542;13.232;2023-04-22T08:41:43;96877.59;;;18.77;43.48
62072;BME280;48031;48.542;13.232;2023-04-22T08:45:46;96887.41;;;19.09;43.75
62072;BME280;48031;48.542;13.232;2023-04-22T08:49:49;96882.63;;;19.32;43.59
62072;BME280;48031;48.542;13.232;2023-04-22T08:53:51;96882.56;;;19.15;44.13
62072;BME280;48031;48.542;13.232;2023-04-22T08:57:53;96886.66;;;19.26;43.01
62072;BME280;48031;48.542;13.232;2023-04-22T09:01:56;96873.75;;;20.12;41.73
62072;BME280;48031;48.542;13.232;2023-04-22T09:06:02;96867.47;;;19.95;41.74
62072;BME280;48031;48.542;13.232;2023-04-22T09:10:05;96867.75;;;20.19;41.83
62072;BME280;48031;48.542;13.232;2023-04-22T09:14:08;96865.19;;;19.97;42.14
62072;BME280;48031;48.542;13.232;2023-04-22T09:18:10;96874.72;;;20.08;41.42
62072;BME280;48031;48.542;13.232;2023-04-22T09:22:12;96862.69;;;20.29;41.34
62072;BME280;48031;48.542;13.232;2023-04-22T09:26:24;96871.53;;;21.07;40.17
62072;BME280;48031;48.542;13.232;2023-04-22T09:30:33;96860.72;;;20.94;40.99
62072;BME280;48031;48.542;13.232;2023-04-22T09:34:48;96861.25;;;21.46;39.26
62072;BME280;48031;48.542;13.232;2023-04-22T09:38:57;96847.78;;;21.86;38.85
62072;BME280;48031;48.542;13.232;2023-04-22T09:43:02;96857.91;;;21.82;38.55
62072;BME280;48031;48.542;13.232;2023-04-22T09:47:04;96849.59;;;22.23;37.85
62072;BME280;48031;48.542;13.232;2023-04-22T09:51:14;96849.22;;;22.70;37.92
62072;BME280;48031;48.542;13.232;2023-04-22T09:55:16;96845.50;;;23.23;35.75
62072;BME280;48031;48.542;13.232;2023-04-22T09:59:19;96837.34;;;24.07;34.46
62072;BME280;48031;48.542;13.232;2023-04-22T10:03:24;96835.03;;;24.52;34.21
62072;BME280;48031;48.542;13.232;2023-04-22T10:07:26;96841.09;;;24.26;34.86
62072;BME280;48031;48.542;13.232;2023-04-22T10:11:33;96835.44;;;24.98;32.74
62072;BME280;48031;48.542;13.232;2023-04-22T10:15:36;96833.75;;;24.93;32.85
62072;BME280;48031;48.542;13.232;2023-04-22T10:19:39;96832.00;;;25.36;32.15
62072;BME280;48031;48.542;13.232;2023-04-22T10:23:46;96835.47;;;25.48;32.20
62072;BME280;48031;48.542;13.232;2023-04-22T10:28:01;96828.84;;;26.07;29.35
62072;BME280;48031;48.542;13.232;2023-04-22T10:32:22;96819.03;;;26.13;29.87
62072;BME280;48031;48.542;13.232;2023-04-22T10:36:25;96819.16;;;26.39;28.32
62072;BME280;48031;48.542;13.232;2023-04-22T10:40:26;96823.66;;;26.47;28.04
62072;BME280;48031;48.542;13.232;2023-04-22T10:44:44;96826.31;;;27.05;27.03
62072;BME280;48031;48.542;13.232;2023-04-22T10:48:47;96816.56;;;26.50;27.65
62072;BME280;48031;48.542;13.232;2023-04-22T10:52:54;96819.09;;;26.59;28.47
62072;BME280;48031;48.542;13.232;2023-04-22T11:01:13;96812.75;;;27.04;27.81
62072;BME280;48031;48.542;13.232;2023-04-22T11:05:24;96809.19;;;27.56;28.12
62072;BME280;48031;48.542;13.232;2023-04-22T11:09:28;96806.47;;;28.19;28.09
62072;BME280;48031;48.542;13.232;2023-04-22T11:13:29;96803.41;;;28.68;27.32
62072;BME280;48031;48.542;13.232;2023-04-22T11:17:32;96807.13;;;28.79;27.07
62072;BME280;48031;48.542;13.232;2023-04-22T11:21:33;96797.44;;;29.14;25.84
62072;BME280;48031;48.542;13.232;2023-04-22T11:25:35;96799.59;;;29.34;25.48
62072;BME280;48031;48.542;13.232;2023-04-22T11:29:37;96789.75;;;30.41;25.36
62072;BME280;48031;48.542;13.232;2023-04-22T11:33:39;96783.19;;;29.95;25.72
62072;BME280;48031;48.542;13.232;2023-04-22T11:41:45;96782.59;;;31.61;22.96
62072;BME280;48031;48.542;13.232;2023-04-22T11:45:47;96777.50;;;32.39;22.22
62072;BME280;48031;48.542;13.232;2023-04-22T11:50:00;96778.22;;;33.57;21.09
62072;BME280;48031;48.542;13.232;2023-04-22T11:54:05;96775.91;;;33.49;19.73
62072;BME280;48031;48.542;13.232;2023-04-22T11:58:15;96766.91;;;34.32;20.27
62072;BME280;48031;48.542;13.232;2023-04-22T12:02:17;96763.88;;;35.27;19.06
62072;BME280;48031;48.542;13.232;2023-04-22T12:06:19;96762.97;;;35.53;17.82
62072;BME280;48031;48.542;13.232;2023-04-22T12:10:22;96771.38;;;35.10;18.02
62072;BME280;48031;48.542;13.232;2023-04-22T12:14:34;96768.06;;;36.60;17.63
62072;BME280;48031;48.542;13.232;2023-04-22T12:18:46;96759.03;;;38.37;16.08
62072;BME280;48031;48.542;13.232;2023-04-22T12:22:51;96768.72;;;39.28;15.62
62072;BME280;48031;48.542;13.232;2023-04-22T12:26:53;96755.22;;;39.19;15.29
62072;BME280;48031;48.542;13.232;2023-04-22T12:30:55;96752.38;;;38.68;15.58
62072;BME280;48031;48.542;13.232;2023-04-22T12:34:57;96753.69;;;40.09;14.35
62072;BME280;48031;48.542;13.232;2023-04-22T12:38:59;96750.84;;;40.09;13.31
62072;BME280;48031;48.542;13.232;2023-04-22T12:43:00;96755.09;;;39.35;12.98
62072;BME280;48031;48.542;13.232;2023-04-22T12:47:06;96757.34;;;40.84;13.68
62072;BME280;48031;48.542;13.232;2023-04-22T12:51:08;96750.88;;;40.92;12.65
62072;BME280;48031;48.542;13.232;2023-04-22T12:55:10;96745.09;;;39.43;13.96
62072;BME280;48031;48.542;13.232;2023-04-22T12:59:12;96745.56;;;40.42;11.11
62072;BME280;48031;48.542;13.232;2023-04-22T13:03:14;96735.06;;;40.60;10.96
62072;BME280;48031;48.542;13.232;2023-04-22T13:07:16;96736.03;;;40.36;11.52
62072;BME280;48031;48.542;13.232;2023-04-22T13:11:18;96728.97;;;39.28;12.88
62072;BME280;48031;48.542;13.232;2023-04-22T13:15:20;96723.28;;;39.28;12.53
62072;BME280;48031;48.542;13.232;2023-04-22T13:19:21;96717.84;;;39.68;11.84
62072;BME280;48031;48.542;13.232;2023-04-22T13:23:26;96709.13;;;38.52;13.58
62072;BME280;48031;48.542;13.232;2023-04-22T13:27:28;96712.19;;;38.32;13.26
62072;BME280;48031;48.542;13.232;2023-04-22T13:31:32;96707.78;;;38.82;12.89
62072;BME280;48031;48.542;13.232;2023-04-22T13:35:34;96702.53;;;39.53;12.04
62072;BME280;48031;48.542;13.232;2023-04-22T13:39:36;96689.28;;;39.49;12.41
62072;BME280;48031;48.542;13.232;2023-04-22T13:43:39;96691.47;;;40.11;13.32
62072;BME280;48031;48.542;13.232;2023-04-22T13:47:40;96690.66;;;40.32;13.09
62072;BME280;48031;48.542;13.232;2023-04-22T13:51:42;96688.31;;;40.70;12.90
62072;BME280;48031;48.542;13.232;2023-04-22T13:55:44;96685.22;;;40.87;12.92
62072;BME280;48031;48.542;13.232;2023-04-22T13:59:48;96670.44;;;41.10;13.10
62072;BME280;48031;48.542;13.232;2023-04-22T14:03:50;96675.84;;;40.15;13.67
62072;BME280;48031;48.542;13.232;2023-04-22T14:07:53;96669.56;;;39.21;13.11
62072;BME280;48031;48.542;13.232;2023-04-22T14:11:55;96671.00;;;38.27;12.92
62072;BME280;48031;48.542;13.232;2023-04-22T14:15:57;96659.38;;;37.55;13.44
62072;BME280;48031;48.542;13.232;2023-04-22T14:19:59;96656.94;;;37.25;13.78
62072;BME280;48031;48.542;13.232;2023-04-22T14:24:00;96649.63;;;36.79;15.52
62072;BME280;48031;48.542;13.232;2023-04-22T14:28:02;96653.81;;;35.86;15.13
62072;BME280;48031;48.542;13.232;2023-04-22T14:32:04;96653.88;;;35.43;15.05
62072;BME280;48031;48.542;13.232;2023-04-22T14:36:06;96642.78;;;35.92;15.61
62072;BME280;48031;48.542;13.232;2023-04-22T14:40:08;96635.75;;;37.00;15.44
62072;BME280;48031;48.542;13.232;2023-04-22T14:44:10;96631.31;;;36.35;15.27
62072;BME280;48031;48.542;13.232;2023-04-22T14:48:12;96628.00;;;36.56;14.43
62072;BME280;48031;48.542;13.232;2023-04-22T14:52:14;96629.09;;;35.90;15.50
62072;BME280;48031;48.542;13.232;2023-04-22T14:56:16;96629.75;;;36.34;14.70
62072;BME280;48031;48.542;13.232;2023-04-22T15:00:18;96627.63;;;36.02;14.77
62072;BME280;48031;48.542;13.232;2023-04-22T15:04:19;96620.41;;;35.61;16.40
62072;BME280;48031;48.542;13.232;2023-04-22T15:08:21;96624.41;;;35.64;15.36
62072;BME280;48031;48.542;13.232;2023-04-22T15:12:25;96615.72;;;35.55;15.34
62072;BME280;48031;48.542;13.232;2023-04-22T15:16:27;96612.28;;;35.04;15.58
62072;BME280;48031;48.542;13.232;2023-04-22T15:20:30;96598.91;;;35.28;16.32
62072;BME280;48031;48.542;13.232;2023-04-22T15:24:32;96605.09;;;35.42;16.90
62072;BME280;48031;48.542;13.232;2023-04-22T15:28:33;96606.63;;;35.27;16.96
62072;BME280;48031;48.542;13.232;2023-04-22T15:32:36;96598.50;;;35.69;15.40
62072;BME280;48031;48.542;13.232;2023-04-22T15:36:39;96596.91;;;35.48;15.72
62072;BME280;48031;48.542;13.232;2023-04-22T15:40:41;96590.34;;;35.91;16.11
62072;BME280;48031;48.542;13.232;2023-04-22T15:44:43;96586.81;;;35.67;15.63
62072;BME280;48031;48.542;13.232;2023-04-22T15:48:45;96585.16;;;36.05;15.93
62072;BME280;48031;48.542;13.232;2023-04-22T15:52:47;96581.31;;;36.32;14.83
62072;BME280;48031;48.542;13.232;2023-04-22T15:56:49;96578.66;;;36.57;14.55
62072;BME280;48031;48.542;13.232;2023-04-22T16:00:51;96583.00;;;36.29;14.47
62072;BME280;48031;48.542;13.232;2023-04-22T16:04:53;96573.09;;;36.37;14.01
62072;BME280;48031;48.542;13.232;2023-04-22T16:08:54;96577.88;;;36.24;14.70
62072;BME280;48031;48.542;13.232;2023-04-22T16:12:57;96572.88;;;36.12;14.79
62072;BME280;48031;48.542;13.232;2023-04-22T16:16:59;96578.44;;;35.99;14.21
62072;BME280;48031;48.542;13.232;2023-04-22T16:21:02;96562.34;;;36.32;14.25
62072;BME280;48031;48.542;13.232;2023-04-22T16:25:04;96567.78;;;35.51;13.65
62072;BME280;48031;48.542;13.232;2023-04-22T16:29:06;96564.34;;;35.24;14.50
62072;BME280;48031;48.542;13.232;2023-04-22T16:33:08;96559.69;;;35.33;14.34
62072;BME280;48031;48.542;13.232;2023-04-22T16:37:10;96565.41;;;35.10;14.70
62072;BME280;48031;48.542;13.232;2023-04-22T16:41:11;96564.56;;;34.90;14.55
62072;BME280;48031;48.542;13.232;2023-04-22T16:45:15;96553.75;;;34.65;14.49
62072;BME280;48031;48.542;13.232;2023-04-22T16:49:17;96564.72;;;34.59;14.86
62072;BME280;48031;48.542;13.232;2023-04-22T16:53:19;96567.28;;;34.00;15.56
62072;BME280;48031;48.542;13.232;2023-04-22T16:57:21;96569.38;;;33.96;15.50
62072;BME280;48031;48.542;13.232;2023-04-22T17:01:23;96569.13;;;33.87;15.92
62072;BME280;48031;48.542;13.232;2023-04-22T17:05:24;96569.97;;;33.54;15.50
62072;BME280;48031;48.542;13.232;2023-04-22T17:09:26;96569.91;;;33.27;16.18
62072;BME280;48031;48.542;13.232;2023-04-22T17:13:28;96564.56;;;33.02;16.26
62072;BME280;48031;48.542;13.232;2023-04-22T17:17:30;96568.09;;;33.06;15.56
62072;BME280;48031;48.542;13.232;2023-04-22T17:21:32;96567.19;;;33.16;15.93
62072;BME280;48031;48.542;13.232;2023-04-22T17:25:37;96570.16;;;32.61;16.27
62072;BME280;48031;48.542;13.232;2023-04-22T17:29:39;96570.72;;;31.97;17.43
62072;BME280;48031;48.542;13.232;2023-04-22T17:33:41;96565.75;;;31.50;19.46
62072;BME280;48031;48.542;13.232;2023-04-22T17:37:43;96576.78;;;30.98;19.60
62072;BME280;48031;48.542;13.232;2023-04-22T17:41:45;96573.66;;;30.43;20.77
62072;BME280;48031;48.542;13.232;2023-04-22T17:45:46;96575.25;;;30.40;20.25
62072;BME280;48031;48.542;13.232;2023-04-22T17:49:48;96578.22;;;29.18;22.68
62072;BME280;48031;48.542;13.232;2023-04-22T17:53:50;96569.28;;;28.81;22.58
62072;BME280;48031;48.542;13.232;2023-04-22T17:57:53;96574.72;;;28.63;22.69
62072;BME280;48031;48.542;13.232;2023-04-22T18:01:55;96587.25;;;28.29;22.73
62072;BME280;48031;48.542;13.232;2023-04-22T18:05:57;96584.44;;;27.85;24.46
62072;BME280;48031;48.542;13.232;2023-04-22T18:09:59;96589.63;;;27.16;23.38
62072;BME280;48031;48.542;13.232;2023-04-22T18:14:00;96592.59;;;26.97;24.05
62072;BME280;48031;48.542;13.232;2023-04-22T18:18:03;96598.38;;;26.58;24.02
62072;BME280;48031;48.542;13.232;2023-04-22T18:22:05;96596.56;;;26.43;24.20
62072;BME280;48031;48.542;13.232;2023-04-22T18:26:06;96598.03;;;26.14;24.57
62072;BME280;48031;48.542;13.232;2023-04-22T18:30:12;96601.41;;;25.78;25.01
62072;BME280;48031;48.542;13.232;2023-04-22T18:34:13;96602.63;;;25.57;25.88
62072;BME280;48031;48.542;13.232;2023-04-22T18:38:16;96595.03;;;25.16;26.48
62072;BME280;48031;48.542;13.232;2023-04-22T18:42:19;96591.47;;;24.61;26.90
62072;BME280;48031;48.542;13.232;2023-04-22T18:46:21;96594.81;;;24.35;27.62
62072;BME280;48031;48.542;13.232;2023-04-22T18:50:23;96595.19;;;24.02;27.84
62072;BME280;48031;48.542;13.232;2023-04-22T18:54:24;96594.38;;;23.86;28.13
62072;BME280;48031;48.542;13.232;2023-04-22T18:58:28;96598.97;;;24.26;27.87
62072;BME280;48031;48.542;13.232;2023-04-22T19:02:29;96598.53;;;24.24;29.11
62072;BME280;48031;48.542;13.232;2023-04-22T19:06:31;96592.78;;;24.32;28.50
62072;BME280;48031;48.542;13.232;2023-04-22T19:10:33;96603.44;;;23.68;28.95
62072;BME280;48031;48.542;13.232;2023-04-22T19:14:35;96603.31;;;23.48;29.44
62072;BME280;48031;48.542;13.232;2023-04-22T19:18:37;96600.38;;;23.57;28.69
62072;BME280;48031;48.542;13.232;2023-04-22T19:22:39;96603.19;;;23.45;29.75
62072;BME280;48031;48.542;13.232;2023-04-22T19:26:40;96599.28;;;23.46;29.67
62072;BME280;48031;48.542;13.232;2023-04-22T19:30:42;96604.75;;;23.02;30.51
62072;BME280;48031;48.542;13.232;2023-04-22T19:34:44;96608.69;;;23.01;30.57
62072;BME280;48031;48.542;13.232;2023-04-22T19:38:46;96606.97;;;22.97;32.83
62072;BME280;48031;48.542;13.232;2023-04-22T19:42:48;96607.53;;;23.02;31.24
62072;BME280;48031;48.542;13.232;2023-04-22T19:46:49;96598.72;;;22.85;31.09
62072;BME280;48031;48.542;13.232;2023-04-22T19:50:52;96607.03;;;23.12;30.92
62072;BME280;48031;48.542;13.232;2023-04-22T19:54:54;96601.19;;;22.50;33.75
62072;BME280;48031;48.542;13.232;2023-04-22T19:59:00;96603.47;;;22.60;32.99
62072;BME280;48031;48.542;13.232;2023-04-22T20:03:02;96592.66;;;22.55;32.92
62072;BME280;48031;48.542;13.232;2023-04-22T20:07:05;96594.25;;;22.56;32.66
62072;BME280;48031;48.542;13.232;2023-04-22T20:11:08;96599.78;;;22.56;33.09
62072;BME280;48031;48.542;13.232;2023-04-22T20:15:10;96591.41;;;22.40;32.51
62072;BME280;48031;48.542;13.232;2023-04-22T20:19:12;96598.91;;;22.27;32.28
62072;BME280;48031;48.542;13.232;2023-04-22T20:23:20;96603.25;;;22.53;32.08
62072;BME280;48031;48.542;13.232;2023-04-22T20:27:24;96611.75;;;21.75;33.37
62072;BME280;48031;48.542;13.232;2023-04-22T20:31:26;96609.41;;;21.52;34.50
62072;BME280;48031;48.542;13.232;2023-04-22T20:35:28;96615.47;;;21.79;34.90
62072;BME280;48031;48.542;13.232;2023-04-22T20:39:33;96607.44;;;21.98;33.88
62072;BME280;48031;48.542;13.232;2023-04-22T20:43:36;96611.72;;;21.95;34.36
62072;BME280;48031;48.542;13.232;2023-04-22T20:47:38;96611.47;;;21.43;36.51
62072;BME280;48031;48.542;13.232;2023-04-22T20:51:39;96612.53;;;21.51;36.91
62072;BME280;48031;48.542;13.232;2023-04-22T20:55:42;96619.75;;;21.43;36.98
62072;BME280;48031;48.542;13.232;2023-04-22T20:59:43;96606.78;;;21.68;35.29
62072;BME280;48031;48.542;13.232;2023-04-22T21:03:49;96613.66;;;22.07;35.01
62072;BME280;48031;48.542;13.232;2023-04-22T21:07:52;96613.13;;;21.56;34.72
62072;BME280;48031;48.542;13.232;2023-04-22T21:11:55;96616.16;;;21.31;35.40
62072;BME280;48031;48.542;13.232;2023-04-22T21:16:00;96616.03;;;21.72;35.63
62072;BME280;48031;48.542;13.232;2023-04-22T21:20:03;96608.13;;;21.38;35.64
62072;BME280;48031;48.542;13.232;2023-04-22T21:24:06;96615.22;;;21.27;36.40